Time;durP1;ratioP1;P1;durP2;ratioP2;P2;SDS_P1;SDS_P2;PMS_P1;PMS_P2;Temp;Humidity;BMP_temperature;BMP_pressure;BME280_temperature;BME280_humidity;BME280_pressure;Samples;Min_cycle;Max_cycle;Signal;HPM_P1;HPM_P2
2023/07/10 08:57:26;;;;;;;8.48;2.42;;;;;;;21.14;68.45;101962.13;5069694;28;20383;-66
2023/07/10 09:00:07;;;;;;;9.25;2.88;;;;;;;21.20;71.64;101963.81;5069362;28;20076;-66
2023/07/10 09:02:48;;;;;;;7.30;2.40;;;;;;;21.19;68.01;101970.41;5065184;28;20408;-66
2023/07/10 09:05:26;;;;;;;8.00;2.75;;;;;;;21.18;68.11;101967.91;5067979;28;20020;-67
2023/07/10 09:07:55;;;;;;;8.30;2.67;;;;;;;21.23;67.93;101971.53;5069573;28;20617;-67
2023/07/10 09:11:03;;;;;;;8.30;2.70;;;;;;;21.40;72.20;101971.31;5066807;28;20036;-67
2023/07/10 09:13:40;;;;;;;9.35;2.53;;;;;;;21.57;70.47;101976.63;5056508;28;20052;-65
2023/07/10 09:16:17;;;;;;;8.02;2.80;;;;;;;21.58;67.91;101974.69;5052454;28;20029;-64
2023/07/10 09:18:55;;;;;;;9.38;2.38;;;;;;;21.67;66.80;101970.31;5069334;28;20021;-65
2023/07/10 09:21:25;;;;;;;8.80;2.95;;;;;;;21.59;64.66;101968.09;5061776;28;20076;-64
2023/07/10 09:23:50;;;;;;;8.20;2.45;;;;;;;21.67;64.68;101964.78;5069167;28;20036;-65
2023/07/10 09:26:19;;;;;;;10.48;2.60;;;;;;;21.79;63.76;101971.97;5064646;28;20079;-64
2023/07/10 09:29:00;;;;;;;10.60;2.88;;;;;;;22.06;63.96;101969.78;5049243;28;20044;-64
2023/07/10 09:32:03;;;;;;;13.20;2.78;;;;;;;22.00;65.79;101976.41;5055762;28;20029;-65
2023/07/10 09:34:31;;;;;;;10.38;2.63;;;;;;;21.87;60.85;101976.94;5047488;28;20052;-67
2023/07/10 09:36:57;;;;;;;8.07;2.47;;;;;;;21.91;61.61;101975.31;5038964;28;20033;-66
2023/07/10 09:39:32;;;;;;;7.95;2.60;;;;;;;22.00;63.52;101965.38;5048245;28;20037;-67
2023/07/10 09:42:01;;;;;;;6.22;2.47;;;;;;;22.26;62.93;101971.69;5048911;28;20035;-65
2023/07/10 09:44:36;;;;;;;10.13;2.55;;;;;;;22.24;63.97;101975.84;5047124;28;20381;-69
2023/07/10 09:47:08;;;;;;;9.45;3.13;;;;;;;22.27;62.72;101978.06;5036443;28;20076;-67
2023/07/10 09:49:40;;;;;;;8.55;2.35;;;;;;;22.36;59.86;101970.06;5048948;28;20057;-69
2023/07/10 09:52:22;;;;;;;8.20;2.47;;;;;;;22.44;59.67;101975.03;5048909;28;20032;-66
2023/07/10 09:55:14;;;;;;;11.55;2.80;;;;;;;22.42;60.23;101975.31;5047698;28;20048;-70
2023/07/10 09:58:01;;;;;;;5.93;2.20;;;;;;;22.47;58.64;101986.31;5048780;28;20044;-69
2023/07/10 10:00:27;;;;;;;6.28;2.20;;;;;;;22.46;57.55;101987.44;5047626;28;20059;-67
2023/07/10 10:02:57;;;;;;;5.28;2.38;;;;;;;22.39;57.09;101978.63;5047587;28;20112;-69
2023/07/10 10:05:23;;;;;;;10.18;2.50;;;;;;;22.45;58.05;101983.03;5048106;28;20359;-66
2023/07/10 10:07:53;;;;;;;7.60;2.25;;;;;;;22.53;56.09;101973.34;5040062;28;20040;-67
2023/07/10 10:10:33;;;;;;;7.75;2.63;;;;;;;22.52;57.37;101968.13;5033400;28;20033;-68
2023/07/10 10:13:17;;;;;;;12.45;3.05;;;;;;;22.64;58.95;101971.41;5033692;28;20080;-68
2023/07/10 10:16:03;;;;;;;7.97;2.20;;;;;;;22.63;58.33;101964.22;5033375;28;20108;-67
2023/07/10 10:19:03;;;;;;;9.73;2.63;;;;;;;22.70;58.95;101975.78;5033992;28;20541;-67
2023/07/10 10:21:33;;;;;;;10.23;2.38;;;;;;;22.67;56.65;101970.84;5032542;28;20092;-71
2023/07/10 10:24:04;;;;;;;10.02;2.17;;;;;;;22.75;55.23;101967.53;5034604;28;20033;-70
2023/07/10 10:26:50;;;;;;;6.65;1.90;;;;;;;22.79;55.58;101962.25;5033523;28;20014;-69
2023/07/10 10:29:24;;;;;;;6.45;2.20;;;;;;;22.83;54.28;101971.63;5034806;28;20076;-69
2023/07/10 10:31:57;;;;;;;6.53;2.10;;;;;;;22.83;54.20;101969.69;5046774;28;20473;-70
2023/07/10 10:34:39;;;;;;;8.20;2.65;;;;;;;23.01;55.86;101964.66;5019982;28;20028;-70
2023/07/10 10:37:30;;;;;;;8.20;2.40;;;;;;;22.96;55.25;101965.53;5021628;28;20036;-70
2023/07/10 10:39:59;;;;;;;6.22;2.17;;;;;;;22.85;54.10;101977.69;5033274;28;20080;-70
2023/07/10 10:42:36;;;;;;;6.00;2.30;;;;;;;22.77;54.47;101957.03;5034517;28;20033;-69
2023/07/10 10:45:14;;;;;;;8.27;2.03;;;;;;;22.87;55.36;101963.59;5034484;28;20021;-71
2023/07/10 10:47:58;;;;;;;8.57;2.42;;;;;;;22.88;54.89;101965.28;5034349;28;20112;-70
2023/07/10 10:50:52;;;;;;;10.50;2.90;;;;;;;22.95;55.71;101963.03;5028358;28;20094;-70
2023/07/10 10:53:26;;;;;;;6.93;2.05;;;;;;;23.00;55.14;101966.59;5012512;28;20077;-70
2023/07/10 10:56:15;;;;;;;8.05;2.20;;;;;;;23.01;54.52;101973.78;5020474;28;20136;-71
2023/07/10 10:58:59;;;;;;;8.50;2.80;;;;;;;23.10;53.78;101971.28;5014470;28;20295;-71
2023/07/10 11:01:44;;;;;;;5.93;2.10;;;;;;;23.21;53.81;101976.78;5012317;28;20030;-70
2023/07/10 11:04:34;;;;;;;6.40;2.17;;;;;;;23.33;54.44;101983.59;5014295;28;20440;-70
2023/07/10 11:07:07;;;;;;;6.50;2.20;;;;;;;23.18;52.58;101990.00;5032643;28;20109;-68
2023/07/10 11:09:41;;;;;;;6.97;2.00;;;;;;;23.18;52.73;101980.91;5032229;28;20381;-67
2023/07/10 11:12:16;;;;;;;7.68;2.40;;;;;;;23.20;53.89;101984.22;5030458;28;20435;-66
2023/07/10 11:14:44;;;;;;;9.50;2.38;;;;;;;23.20;53.75;101975.94;5021453;28;20037;-66
2023/07/10 11:17:13;;;;;;;6.57;2.15;;;;;;;23.22;53.16;101978.41;5025217;28;20033;-67
2023/07/10 11:19:39;;;;;;;8.07;2.40;;;;;;;23.25;53.53;101975.06;5033042;28;20362;-68
2023/07/10 11:22:31;;;;;;;6.03;1.98;;;;;;;23.41;55.12;101967.53;5033337;28;20052;-68
2023/07/10 11:24:58;;;;;;;9.70;2.70;;;;;;;23.60;51.34;101967.72;5031139;28;20017;-67
2023/07/10 11:27:33;;;;;;;10.30;2.35;;;;;;;23.64;52.45;101954.97;5032939;28;20614;-67
2023/07/10 11:30:12;;;;;;;8.20;2.30;;;;;;;23.71;51.33;101950.75;5033075;28;20022;-69
2023/07/10 11:32:58;;;;;;;9.98;2.58;;;;;;;23.93;51.15;101959.75;5014641;28;20030;-72
2023/07/10 11:35:25;;;;;;;4.90;2.08;;;;;;;23.99;50.33;101953.91;5012595;28;20073;-68
2023/07/10 11:37:50;;;;;;;6.20;1.92;;;;;;;24.03;48.44;101943.91;5033230;28;20044;-67
2023/07/10 11:40:28;;;;;;;6.60;1.88;;;;;;;24.08;49.20;101954.13;5029990;28;20037;-68
2023/07/10 11:42:54;;;;;;;11.40;2.42;;;;;;;24.29;49.97;101951.13;5032463;28;20055;-68
2023/07/10 11:45:51;;;;;;;7.40;2.30;;;;;;;24.53;50.55;101943.72;5033581;28;20041;-68
2023/07/10 11:48:39;;;;;;;9.15;2.50;;;;;;;24.50;49.95;101944.28;5028839;28;20417;-68
2023/07/10 11:51:34;;;;;;;7.68;2.70;;;;;;;24.23;50.25;101945.66;5033026;28;20033;-69
2023/07/10 11:54:12;;;;;;;7.90;2.40;;;;;;;24.08;49.10;101940.28;5033156;28;20034;-68
2023/07/10 11:56:38;;;;;;;8.48;2.35;;;;;;;24.12;49.40;101938.56;5032974;28;20049;-68
2023/07/10 11:59:20;;;;;;;4.72;1.70;;;;;;;24.35;50.50;101931.44;5038196;28;20460;-71
2023/07/10 12:01:45;;;;;;;6.68;2.03;;;;;;;24.37;49.34;101934.75;5023502;28;20533;-69
2023/07/10 12:04:15;;;;;;;10.35;2.13;;;;;;;24.55;48.77;101935.94;5031985;28;20029;-70
2023/07/10 12:06:45;;;;;;;5.45;1.80;;;;;;;24.57;48.53;101930.91;5033187;28;20112;-66
2023/07/10 12:09:11;;;;;;;7.75;2.13;;;;;;;24.72;47.45;101932.72;5032974;28;20025;-67
2023/07/10 12:11:38;;;;;;;6.60;2.10;;;;;;;24.97;47.06;101933.53;5033372;28;20523;-66
2023/07/10 12:14:12;;;;;;;6.63;1.90;;;;;;;25.18;47.64;101928.53;5032406;28;20037;-68
2023/07/10 12:16:50;;;;;;;8.30;2.40;;;;;;;25.20;46.81;101933.75;5032719;28;20060;-67
2023/07/10 12:19:21;;;;;;;5.15;1.75;;;;;;;25.36;46.95;101918.59;5032949;28;20027;-68
2023/07/10 12:21:46;;;;;;;;;;;;;;;25.47;48.70;101927.63;5033119;28;20078;-68
2023/07/10 12:24:15;;;;;;;7.23;2.43;;;;;;;25.52;46.98;101935.84;5031062;28;19913;-69
2023/07/10 12:26:40;;;;;;;8.68;2.53;;;;;;;25.37;45.65;101925.00;5032697;28;20052;-69
2023/07/10 12:29:12;;;;;;;7.28;2.13;;;;;;;25.25;46.43;101923.44;5032622;28;20468;-67
2023/07/10 12:31:38;;;;;;;5.60;2.17;;;;;;;25.15;46.19;101920.00;5032573;28;20044;-67
2023/07/10 12:34:05;;;;;;;7.28;2.10;;;;;;;25.40;47.44;101910.53;5032496;28;20033;-68
2023/07/10 12:36:35;;;;;;;8.98;2.28;;;;;;;25.46;45.89;101909.34;5032773;28;20025;-67
2023/07/10 12:39:07;;;;;;;7.65;2.17;;;;;;;25.42;45.21;101913.81;5032318;28;20025;-71
2023/07/10 12:41:40;;;;;;;6.82;2.20;;;;;;;25.41;44.85;101913.00;5031381;28;20465;-67
2023/07/10 12:44:07;;;;;;;7.07;2.00;;;;;;;25.50;45.64;101912.31;5031548;28;20029;-67
2023/07/10 12:46:33;;;;;;;5.75;2.00;;;;;;;25.59;44.52;101905.81;5031278;28;20029;-69
2023/07/10 12:49:10;;;;;;;5.88;2.35;;;;;;;25.86;45.77;101895.91;5031075;28;20104;-67
2023/07/10 12:51:41;;;;;;;6.63;2.20;;;;;;;25.85;43.70;101910.09;5032845;28;20120;-69
2023/07/10 12:54:18;;;;;;;;;;;;;;;25.99;43.52;101905.44;5032412;28;20033;-67
2023/07/10 12:56:44;;;;;;;8.57;2.15;;;;;;;25.74;42.68;101910.28;5032377;28;20323;-67
2023/07/10 12:59:13;;;;;;;8.32;2.50;;;;;;;25.71;43.33;101907.28;5032260;28;20025;-66
2023/07/10 13:01:38;;;;;;;7.95;2.28;;;;;;;25.78;43.67;101904.94;5030141;28;20487;-68
2023/07/10 13:04:03;;;;;;;7.82;2.25;;;;;;;26.10;44.92;101897.75;5032180;28;20030;-67
2023/07/10 13:06:33;;;;;;;7.40;2.43;;;;;;;26.32;44.04;101903.44;5031019;28;20041;-67
2023/07/10 13:09:03;;;;;;;7.88;2.30;;;;;;;26.13;43.49;101905.47;5031497;28;20315;-67
2023/07/10 13:11:28;;;;;;;10.43;2.33;;;;;;;26.02;43.81;101893.75;5032311;28;20025;-67
2023/07/10 13:13:54;;;;;;;8.27;1.90;;;;;;;26.27;43.61;101895.22;5032300;28;20021;-67
2023/07/10 13:16:25;;;;;;;4.55;2.03;;;;;;;26.52;43.88;101890.28;5030969;28;20025;-67
2023/07/10 13:18:51;;;;;;;7.18;2.40;;;;;;;26.52;43.52;101887.53;5030790;28;20531;-66
2023/07/10 13:21:18;;;;;;;6.10;2.10;;;;;;;26.31;42.20;101884.31;5031929;28;20026;-68
2023/07/10 13:23:44;;;;;;;5.32;2.20;;;;;;;26.31;42.16;101890.69;5032124;28;20112;-68
2023/07/10 13:26:16;;;;;;;6.82;2.15;;;;;;;26.60;43.48;101892.38;5032038;28;20159;-67
2023/07/10 13:28:43;;;;;;;8.23;2.47;;;;;;;26.76;42.23;101894.84;5032238;28;20112;-68
2023/07/10 13:31:08;;;;;;;9.80;2.65;;;;;;;26.63;42.51;101891.75;5031063;28;20117;-67
2023/07/10 13:33:35;;;;;;;7.40;2.15;;;;;;;26.52;43.02;101891.09;5032412;28;20071;-68
2023/07/10 13:36:01;;;;;;;8.57;2.45;;;;;;;26.62;41.85;101884.53;5048724;28;20476;-68
2023/07/10 13:38:27;;;;;;;8.43;1.98;;;;;;;26.39;42.16;101883.63;5032139;28;20030;-68
2023/07/10 13:40:52;;;;;;;5.55;2.20;;;;;;;26.35;42.70;101882.59;5030886;28;20065;-68
2023/07/10 13:43:21;;;;;;;6.13;2.13;;;;;;;26.34;41.95;101880.94;5034053;28;20065;-67
2023/07/10 13:45:53;;;;;;;6.72;2.30;;;;;;;26.29;43.55;101881.84;5035868;28;20033;-67
2023/07/10 13:48:19;;;;;;;7.30;2.00;;;;;;;26.47;44.01;101880.13;5034029;28;20026;-68
2023/07/10 13:50:47;;;;;;;6.75;2.10;;;;;;;26.59;42.97;101874.06;5035750;28;20384;-68
2023/07/10 13:53:16;;;;;;;6.78;2.13;;;;;;;26.73;41.98;101876.84;5035539;28;20033;-68
2023/07/10 13:55:42;;;;;;;10.50;2.53;;;;;;;26.69;41.51;101873.88;5033380;28;20057;-68
2023/07/10 13:58:16;;;;;;;7.75;2.10;;;;;;;26.89;42.63;101877.34;5035426;28;20424;-67
2023/07/10 14:00:41;;;;;;;6.78;2.05;;;;;;;26.82;41.93;101876.94;5033196;28;20068;-68
2023/07/10 14:03:10;;;;;;;6.22;2.28;;;;;;;26.70;40.83;101874.69;5035404;28;20454;-68
2023/07/10 14:05:35;;;;;;;6.70;2.22;;;;;;;26.83;40.92;101873.84;5035465;28;20037;-67
2023/07/10 14:08:00;;;;;;;8.73;2.50;;;;;;;26.97;40.96;101873.81;5035214;28;20488;-69
2023/07/10 14:10:26;;;;;;;8.18;2.20;;;;;;;26.85;40.66;101870.75;5035322;28;20056;-68
2023/07/10 14:12:51;;;;;;;5.88;2.00;;;;;;;26.75;40.70;101870.97;5035354;28;20504;-68
2023/07/10 14:15:19;;;;;;;4.70;1.80;;;;;;;26.92;41.08;101871.16;5033276;28;20564;-69
2023/07/10 14:17:45;;;;;;;10.88;2.20;;;;;;;27.15;40.66;101879.56;5034975;28;20021;-68
2023/07/10 14:20:23;;;;;;;6.43;2.05;;;;;;;27.44;42.55;101875.56;5035118;28;20104;-69
2023/07/10 14:22:49;;;;;;;4.60;1.98;;;;;;;27.65;40.26;101868.34;5035306;28;20021;-68
2023/07/10 14:25:17;;;;;;;6.90;2.10;;;;;;;27.68;39.90;101864.94;5034913;28;20373;-67
2023/07/10 14:27:44;;;;;;;5.45;1.83;;;;;;;27.50;39.77;101860.41;5035077;28;20040;-68
2023/07/10 14:30:21;;;;;;;5.07;2.10;;;;;;;27.30;41.32;101854.16;5033644;28;20060;-68
2023/07/10 14:32:46;;;;;;;5.80;2.08;;;;;;;27.41;39.09;101855.59;5035046;28;20040;-68
2023/07/10 14:35:20;;;;;;;5.45;1.83;;;;;;;27.60;40.23;101851.81;5034536;28;20029;-68
2023/07/10 14:37:48;;;;;;;6.22;1.92;;;;;;;27.90;40.41;101849.34;5034825;28;20076;-68
2023/07/10 14:40:15;;;;;;;5.35;2.00;;;;;;;27.80;39.14;101844.88;5034646;28;20029;-67
2023/07/10 14:42:40;;;;;;;4.35;1.80;;;;;;;27.62;38.42;101851.50;5034528;28;20404;-68
2023/07/10 14:45:11;;;;;;;5.97;1.90;;;;;;;27.49;39.55;101844.84;5034490;28;20029;-68
2023/07/10 14:47:37;;;;;;;4.03;1.70;;;;;;;27.31;39.00;101850.25;5034706;28;20420;-68
2023/07/10 14:50:05;;;;;;;9.50;1.83;;;;;;;27.06;40.40;101852.50;5033303;28;20025;-68
2023/07/10 14:52:33;;;;;;;5.03;2.00;;;;;;;27.38;40.21;101839.53;5034081;28;20091;-68
2023/07/10 14:55:03;;;;;;;8.38;2.22;;;;;;;27.75;38.89;101843.06;5034153;28;20033;-68
2023/07/10 14:57:29;;;;;;;5.07;1.93;;;;;;;28.02;40.50;101824.59;5034528;28;20025;-68
2023/07/10 14:59:55;;;;;;;6.28;1.95;;;;;;;28.15;38.32;101827.56;5034446;28;20264;-67
2023/07/10 15:02:25;;;;;;;5.55;1.55;;;;;;;28.21;37.76;101826.28;5031961;28;20049;-69
2023/07/10 15:04:51;;;;;;;9.13;1.90;;;;;;;27.90;38.19;101816.81;5034404;28;20057;-68
2023/07/10 15:07:18;;;;;;;7.28;2.00;;;;;;;27.74;38.90;101818.34;5034099;28;20436;-68
2023/07/10 15:09:44;;;;;;;6.35;1.80;;;;;;;28.09;39.40;101813.78;5031793;28;20026;-68
2023/07/10 15:12:12;;;;;;;4.72;1.83;;;;;;;28.26;37.74;101815.00;5032576;28;20072;-68
2023/07/10 15:14:37;;;;;;;6.25;1.65;;;;;;;28.24;37.64;101803.38;5034308;28;20379;-68
2023/07/10 15:17:04;;;;;;;5.68;1.70;;;;;;;28.02;37.88;101802.34;5033532;28;20032;-68
2023/07/10 15:19:30;;;;;;;4.07;1.55;;;;;;;27.89;38.38;101798.47;5034149;28;20041;-68
2023/07/10 15:21:55;;;;;;;6.47;1.73;;;;;;;27.80;39.17;101794.84;5034027;28;20021;-68
2023/07/10 15:24:27;;;;;;;6.00;1.75;;;;;;;27.85;37.83;101794.69;5033823;28;20116;-68
2023/07/10 15:26:55;;;;;;;4.75;1.60;;;;;;;28.13;37.83;101796.44;5033975;28;20061;-68
2023/07/10 15:29:20;;;;;;;6.45;1.77;;;;;;;28.19;38.16;101778.50;5032764;28;20108;-68
2023/07/10 15:31:49;;;;;;;4.18;1.60;;;;;;;28.60;37.58;101782.84;5033636;28;20112;-68
2023/07/10 15:34:15;;;;;;;3.75;1.63;;;;;;;28.72;36.48;101785.81;5033463;28;20064;-68
2023/07/10 15:36:41;;;;;;;7.00;1.60;;;;;;;28.74;35.78;101783.50;5033840;28;20060;-68
2023/07/10 15:39:14;;;;;;;4.50;1.50;;;;;;;28.61;36.70;101776.97;5032205;28;20523;-69
2023/07/10 15:41:40;;;;;;;2.90;1.40;;;;;;;28.51;36.81;101773.66;5033438;28;20419;-68
2023/07/10 15:44:11;;;;;;;5.63;1.80;;;;;;;28.64;37.19;101772.72;5033422;28;20029;-67
2023/07/10 15:46:36;;;;;;;3.53;1.40;;;;;;;28.76;37.50;101756.16;5033603;28;20075;-68
2023/07/10 15:49:15;;;;;;;5.00;1.65;;;;;;;29.20;34.97;101767.28;5031039;28;20033;-69
2023/07/10 15:51:40;;;;;;;4.40;1.65;;;;;;;29.51;33.78;101761.47;5033416;28;20033;-67
2023/07/10 15:54:10;;;;;;;7.25;1.88;;;;;;;29.19;35.68;101768.44;5033336;28;20029;-67
2023/07/10 15:56:35;;;;;;;5.22;1.60;;;;;;;29.24;36.42;101759.91;5031840;28;20049;-67
2023/07/10 15:59:01;;;;;;;4.07;1.57;;;;;;;29.20;34.12;101753.34;5033646;28;20033;-67
2023/07/10 16:01:26;;;;;;;4.93;1.58;;;;;;;29.68;34.46;101746.69;5030595;28;20751;-66
2023/07/10 16:03:51;;;;;;;5.95;1.60;;;;;;;30.09;34.68;101746.34;5033547;28;20564;-69
2023/07/10 16:06:17;;;;;;;4.43;2.03;;;;;;;30.25;32.99;101754.97;5032565;28;20469;-68
